createdAt,value
2018-07-01T00:00:05.723Z,98825.86
2018-07-01T00:02:33.638Z,98829.53
2018-07-01T00:05:01.544Z,98836.00
2018-07-01T00:07:29.455Z,98832.22
2018-07-01T00:09:57.408Z,98828.48
2018-07-01T00:12:25.380Z,98843.50
2018-07-01T00:14:53.637Z,98841.64
2018-07-01T00:17:21.502Z,98854.77
2018-07-01T00:19:49.375Z,98848.05
2018-07-01T00:22:17.266Z,98850.80
2018-07-01T00:24:45.159Z,98847.83
2018-07-01T00:27:13.076Z,98847.55
2018-07-01T00:29:40.920Z,98850.59
2018-07-01T00:32:08.783Z,98850.80
2018-07-01T00:34:36.976Z,98858.30
2018-07-01T00:37:04.918Z,98860.44
2018-07-01T00:39:32.811Z,98866.52
2018-07-01T00:42:00.740Z,98883.61
2018-07-01T00:44:28.643Z,98861.27
2018-07-01T00:46:56.526Z,98868.25
2018-07-01T00:49:24.410Z,98876.10
2018-07-01T00:51:52.305Z,98871.52
2018-07-01T00:54:20.186Z,98860.33
2018-07-01T00:56:48.067Z,98882.49
2018-07-01T00:59:15.958Z,98905.84
2018-07-01T01:01:43.784Z,98897.03
2018-07-01T01:04:11.651Z,98887.23
2018-07-01T01:06:39.577Z,98878.16
2018-07-01T01:09:10.683Z,98882.88
2018-07-01T01:11:38.910Z,98883.45
2018-07-01T01:14:07.131Z,98891.02
2018-07-01T01:16:35.314Z,98894.68
2018-07-01T01:19:03.313Z,98892.48
2018-07-01T01:21:31.186Z,98899.60
2018-07-01T01:23:59.138Z,98902.61
2018-07-01T01:26:27.329Z,98905.84
2018-07-01T01:28:55.230Z,98894.94
2018-07-01T01:31:23.288Z,98892.77
2018-07-01T01:33:51.225Z,98905.05
2018-07-01T01:36:19.184Z,98906.46
2018-07-01T01:38:48.210Z,98910.55
2018-07-01T01:41:22.775Z,98911.94
2018-07-01T01:43:57.300Z,98901.78
2018-07-01T01:46:30.782Z,98921.52
2018-07-01T01:50:05.755Z,98922.83
2018-07-01T01:52:41.121Z,98922.83
2018-07-01T01:55:14.414Z,98920.96
2018-07-01T01:57:48.780Z,98929.72
2018-07-01T02:00:23.404Z,98933.83
2018-07-01T02:02:55.775Z,98938.75
2018-07-01T02:05:27.438Z,98940.09
2018-07-01T02:08:01.647Z,98937.11
2018-07-01T02:10:29.649Z,98933.00
2018-07-01T02:12:57.669Z,98940.13
2018-07-01T02:15:29.142Z,98944.80
2018-07-01T02:17:57.154Z,98933.86
2018-07-01T02:20:28.964Z,98947.53
2018-07-01T02:23:03.274Z,98944.47
2018-07-01T02:25:32.887Z,98948.61
2018-07-01T02:28:00.835Z,98946.38
2018-07-01T02:30:28.931Z,98957.28
2018-07-01T02:32:56.808Z,98970.53
2018-07-01T02:35:24.804Z,98978.41
2018-07-01T02:37:52.655Z,98989.33
2018-07-01T02:40:20.550Z,98990.70
2018-07-01T02:42:48.412Z,98991.77
2018-07-01T02:45:16.288Z,98993.41
2018-07-01T02:47:44.207Z,99008.44
2018-07-01T02:50:12.429Z,99003.64
2018-07-01T02:52:40.387Z,99009.31
2018-07-01T02:55:08.357Z,99011.88
2018-07-01T02:57:36.281Z,99020.55
2018-07-01T03:00:04.834Z,99021.73
2018-07-01T03:02:32.738Z,99014.88
2018-07-01T03:05:00.579Z,99024.20
2018-07-01T03:07:28.427Z,99033.55
2018-07-01T03:09:56.296Z,99030.41
2018-07-01T03:12:24.171Z,99045.95
2018-07-01T03:14:52.015Z,99030.66
2018-07-01T03:17:19.978Z,99030.03
2018-07-01T03:19:47.854Z,99023.71
2018-07-01T03:22:15.716Z,99034.41
2018-07-01T03:24:43.623Z,99029.25
2018-07-01T03:27:11.488Z,99035.31
2018-07-01T03:29:39.348Z,99034.52
2018-07-01T03:32:07.244Z,99042.45
2018-07-01T03:34:35.098Z,99035.80
2018-07-01T03:37:03.015Z,99045.05
2018-07-01T03:39:30.855Z,99046.79
2018-07-01T03:41:58.725Z,99057.24
2018-07-01T03:44:26.607Z,99052.00
2018-07-01T03:46:54.498Z,99064.53
2018-07-01T03:49:22.342Z,99073.27
2018-07-01T03:51:50.300Z,99070.19
2018-07-01T03:54:18.147Z,99077.78
2018-07-01T03:56:46.058Z,99075.27
2018-07-01T03:59:13.898Z,99087.48
2018-07-01T04:01:41.804Z,99088.92
2018-07-01T04:04:09.719Z,99097.56
2018-07-01T04:06:37.606Z,99104.83
2018-07-01T04:09:08.040Z,99092.75
2018-07-01T04:11:35.995Z,99098.89
2018-07-01T04:14:03.965Z,99098.67
2018-07-01T04:16:31.790Z,99107.64
2018-07-01T04:18:59.706Z,99109.06
2018-07-01T04:21:27.608Z,99110.19
2018-07-01T04:23:55.463Z,99108.73
2018-07-01T04:26:23.367Z,99107.65
2018-07-01T04:28:51.243Z,99109.39
2018-07-01T04:31:19.103Z,99109.63
2018-07-01T04:33:47.194Z,99115.06
2018-07-01T04:36:15.031Z,99115.85
2018-07-01T04:38:42.960Z,99119.77
2018-07-01T04:41:10.862Z,99125.72
2018-07-01T04:43:38.774Z,99131.29
2018-07-01T04:46:06.682Z,99137.21
2018-07-01T04:48:34.543Z,99148.41
2018-07-01T04:51:02.412Z,99148.00
2018-07-01T04:53:30.280Z,99151.05
2018-07-01T04:55:58.167Z,99154.94
2018-07-01T04:58:26.056Z,99152.30
2018-07-01T05:00:53.956Z,99155.50
2018-07-01T05:03:21.871Z,99152.41
2018-07-01T05:05:49.734Z,99170.23
2018-07-01T05:08:17.597Z,99177.41
2018-07-01T05:10:45.714Z,99172.57
2018-07-01T05:13:13.593Z,99169.73
2018-07-01T05:15:41.487Z,99176.56
2018-07-01T05:18:09.418Z,99177.22
2018-07-01T05:20:37.281Z,99176.55
2018-07-01T05:23:05.270Z,99186.13
2018-07-01T05:25:33.148Z,99180.83
2018-07-01T05:28:01.005Z,99185.00
2018-07-01T05:30:28.919Z,99175.09
2018-07-01T05:32:56.800Z,99181.31
2018-07-01T05:35:24.680Z,99186.72
2018-07-01T05:37:52.859Z,99195.85
2018-07-01T05:40:20.763Z,99200.89
2018-07-01T05:42:48.626Z,99201.66
2018-07-01T05:45:16.504Z,99193.33
2018-07-01T05:47:44.359Z,99194.80
2018-07-01T05:50:12.219Z,99194.49
2018-07-01T05:52:40.103Z,99193.67
2018-07-01T05:55:08.000Z,99206.64
2018-07-01T05:57:35.904Z,99213.05
2018-07-01T06:00:04.351Z,99207.41
2018-07-01T06:02:32.235Z,99223.66
2018-07-01T06:05:00.115Z,99210.59
2018-07-01T06:07:27.985Z,99225.78
2018-07-01T06:09:55.854Z,99221.26
2018-07-01T06:12:23.703Z,99227.36
2018-07-01T06:14:51.615Z,99226.05
2018-07-01T06:17:19.507Z,99226.45
2018-07-01T06:19:47.350Z,99228.16
2018-07-01T06:22:15.309Z,99236.75
2018-07-01T06:24:43.274Z,99233.28
2018-07-01T06:27:11.126Z,99224.68
2018-07-01T06:29:39.030Z,99234.08
2018-07-01T06:32:06.940Z,99227.55
2018-07-01T06:34:34.823Z,99229.89
2018-07-01T06:37:02.697Z,99228.48
2018-07-01T06:39:30.549Z,99233.52
2018-07-01T06:41:58.442Z,99234.22
2018-07-01T06:44:26.277Z,99238.95
2018-07-01T06:46:54.202Z,99222.23
2018-07-01T06:49:22.086Z,99222.06
2018-07-01T06:51:49.976Z,99232.04
2018-07-01T06:54:17.865Z,99233.10
2018-07-01T06:56:45.731Z,99231.30
2018-07-01T06:59:13.611Z,99232.16
2018-07-01T07:01:41.497Z,99223.05
2018-07-01T07:04:09.424Z,99220.80
2018-07-01T07:06:37.284Z,99225.44
2018-07-01T07:09:07.864Z,99233.93
2018-07-01T07:11:35.782Z,99228.31
2018-07-01T07:14:03.868Z,99220.19
2018-07-01T07:16:31.848Z,99220.05
2018-07-01T07:18:59.708Z,99211.09
2018-07-01T07:21:27.603Z,99233.89
2018-07-01T07:23:55.561Z,99217.30
2018-07-01T07:26:23.421Z,99230.30
2018-07-01T07:28:51.296Z,99225.27
2018-07-01T07:31:19.151Z,99212.42
2018-07-01T07:33:47.013Z,99238.36
2018-07-01T07:36:14.927Z,99240.72
2018-07-01T07:38:42.783Z,99235.52
2018-07-01T07:41:10.672Z,99236.72
2018-07-01T07:43:38.635Z,99236.38
2018-07-01T07:46:06.597Z,99258.66
2018-07-01T07:48:34.863Z,99258.72
2018-07-01T07:51:02.789Z,99256.44
2018-07-01T07:53:30.994Z,99263.30
2018-07-01T07:55:58.879Z,99275.53
2018-07-01T07:58:26.871Z,99279.66
2018-07-01T08:00:54.780Z,99291.02
2018-07-01T08:03:22.867Z,99290.75
2018-07-01T08:05:50.751Z,99282.73
2018-07-01T08:08:18.686Z,99295.84
2018-07-01T08:10:46.531Z,99281.77
2018-07-01T08:13:14.415Z,99307.00
2018-07-01T08:15:42.483Z,99302.61
2018-07-01T08:18:10.437Z,99306.28
2018-07-01T08:20:38.301Z,99303.93
2018-07-01T08:23:06.198Z,99291.92
2018-07-01T08:25:34.102Z,99292.79
2018-07-01T08:28:01.963Z,99290.16
2018-07-01T08:30:29.874Z,99292.30
2018-07-01T08:32:57.751Z,99283.27
2018-07-01T08:35:25.644Z,99302.27
2018-07-01T08:37:53.539Z,99304.22
2018-07-01T08:40:21.486Z,99306.22
2018-07-01T08:42:49.284Z,99300.63
2018-07-01T08:45:17.171Z,99312.88
2018-07-01T08:47:45.043Z,99315.30
2018-07-01T08:50:12.901Z,99307.48
2018-07-01T08:52:40.807Z,99302.27
2018-07-01T08:55:08.688Z,99313.81
2018-07-01T08:57:36.515Z,99310.97
2018-07-01T09:00:05.690Z,99321.38
2018-07-01T09:02:33.581Z,99329.61
2018-07-01T09:05:01.407Z,99325.16
2018-07-01T09:07:29.248Z,99322.30
2018-07-01T09:09:57.120Z,99328.08
2018-07-01T09:12:24.939Z,99319.88
2018-07-01T09:14:52.825Z,99326.45
2018-07-01T09:17:20.821Z,99328.08
2018-07-01T09:19:48.636Z,99330.22
2018-07-01T09:22:16.509Z,99331.05
2018-07-01T09:24:44.390Z,99336.58
2018-07-01T09:27:12.266Z,99333.89
2018-07-01T09:29:45.722Z,99333.75
2018-07-01T09:32:13.710Z,99325.42
2018-07-01T09:34:41.700Z,99332.98
2018-07-01T09:37:09.514Z,99324.16
2018-07-01T09:39:37.359Z,99325.72
2018-07-01T09:42:05.348Z,99325.81
2018-07-01T09:44:33.198Z,99330.66
2018-07-01T09:47:01.040Z,99331.63
2018-07-01T09:49:28.871Z,99342.70
2018-07-01T09:51:56.762Z,99336.73
2018-07-01T09:54:24.587Z,99335.78
2018-07-01T09:56:52.548Z,99347.70
2018-07-01T09:59:20.471Z,99340.55
2018-07-01T10:01:48.312Z,99335.14
2018-07-01T10:04:16.178Z,99342.97
2018-07-01T10:06:44.010Z,99341.43
2018-07-01T10:09:11.923Z,99342.59
2018-07-01T10:11:39.800Z,99319.53
2018-07-01T10:14:08.294Z,99335.91
2018-07-01T10:16:36.292Z,99342.58
2018-07-01T10:19:04.331Z,99338.78
2018-07-01T10:21:32.287Z,99340.26
2018-07-01T10:24:00.160Z,99334.15
2018-07-01T10:26:28.080Z,99338.58
2018-07-01T10:29:03.726Z,99345.53
2018-07-01T10:31:31.600Z,99338.70
2018-07-01T10:33:59.507Z,99336.94
2018-07-01T10:36:27.451Z,99339.14
2018-07-01T10:38:55.309Z,99351.70
2018-07-01T10:41:23.411Z,99351.97
2018-07-01T10:43:51.264Z,99330.31
2018-07-01T10:46:19.277Z,99337.52
2018-07-01T10:48:47.185Z,99340.91
2018-07-01T10:51:15.076Z,99347.81
2018-07-01T10:53:42.906Z,99355.28
2018-07-01T10:56:10.750Z,99351.53
2018-07-01T10:58:38.946Z,99352.71
2018-07-01T11:01:06.900Z,99341.61
2018-07-01T11:03:34.932Z,99332.63
2018-07-01T11:06:03.148Z,99342.07
2018-07-01T11:08:31.039Z,99337.13
2018-07-01T11:10:58.976Z,99342.55
2018-07-01T11:13:26.858Z,99337.84
2018-07-01T11:15:54.762Z,99350.14
2018-07-01T11:18:22.619Z,99340.91
2018-07-01T11:20:50.481Z,99341.44
2018-07-01T11:23:18.389Z,99349.45
2018-07-01T11:25:46.282Z,99343.75
2018-07-01T11:28:14.363Z,99338.17
2018-07-01T11:30:42.244Z,99342.43
2018-07-01T11:33:10.120Z,99335.13
2018-07-01T11:35:37.999Z,99344.91
2018-07-01T11:38:05.966Z,99339.23
2018-07-01T11:40:33.838Z,99343.48
2018-07-01T11:43:01.743Z,99353.63
2018-07-01T11:45:29.590Z,99358.98
2018-07-01T11:47:57.473Z,99351.61
2018-07-01T11:50:25.563Z,99349.12
2018-07-01T11:52:53.514Z,99350.27
2018-07-01T11:55:21.411Z,99362.16
2018-07-01T11:57:49.254Z,99356.25
2018-07-01T12:00:17.131Z,99352.58
2018-07-01T12:02:45.004Z,99344.98
2018-07-01T12:05:16.653Z,99360.23
2018-07-01T12:07:40.812Z,99367.56
2018-07-01T12:10:08.780Z,99364.11
2018-07-01T12:12:36.685Z,99357.37
2018-07-01T12:15:04.859Z,99355.89
2018-07-01T12:17:32.732Z,99340.97
2018-07-01T12:20:00.597Z,99358.34
2018-07-01T12:22:28.787Z,99366.39
2018-07-01T12:24:56.656Z,99359.34
2018-07-01T12:27:24.536Z,99348.90
2018-07-01T12:29:52.394Z,99355.75
2018-07-01T12:32:20.309Z,99346.86
2018-07-01T12:34:48.180Z,99345.23
2018-07-01T12:37:21.548Z,99335.81
2018-07-01T12:39:49.425Z,99342.25
2018-07-01T12:42:17.346Z,99338.19
2018-07-01T12:44:45.201Z,99328.05
2018-07-01T12:47:13.122Z,99341.79
2018-07-01T12:49:40.998Z,99341.46
2018-07-01T12:52:08.840Z,99350.22
2018-07-01T12:54:37.028Z,99341.30
2018-07-01T12:57:04.854Z,99345.66
2018-07-01T12:59:32.695Z,99346.17
2018-07-01T13:02:00.583Z,99334.41
2018-07-01T13:04:28.450Z,99338.72
2018-07-01T13:06:56.302Z,99345.80
2018-07-01T13:09:24.126Z,99337.22
2018-07-01T13:11:52.238Z,99328.98
2018-07-01T13:14:20.111Z,99326.34
2018-07-01T13:16:47.996Z,99328.59
2018-07-01T13:19:15.821Z,99338.75
2018-07-01T13:21:43.671Z,99341.77
2018-07-01T13:24:11.498Z,99337.17
2018-07-01T13:26:39.366Z,99335.64
2018-07-01T13:29:07.279Z,99339.20
2018-07-01T13:31:35.130Z,99325.11
2018-07-01T13:34:02.999Z,99334.12
2018-07-01T13:36:30.881Z,99342.23
2018-07-01T13:38:58.766Z,99344.58
2018-07-01T13:41:26.596Z,99334.85
2018-07-01T13:43:54.502Z,99338.73
2018-07-01T13:46:22.548Z,99338.31
2018-07-01T13:48:50.498Z,99329.75
2018-07-01T13:51:18.410Z,99330.56
2018-07-01T13:53:46.347Z,99328.86
2018-07-01T13:56:14.231Z,99336.53
2018-07-01T13:58:42.091Z,99337.58
2018-07-01T14:01:09.960Z,99331.37
2018-07-01T14:03:37.801Z,99319.92
2018-07-01T14:06:05.945Z,99342.59
2018-07-01T14:08:33.868Z,99334.56
2018-07-01T14:11:01.730Z,99330.87
2018-07-01T14:13:29.653Z,99321.50
2018-07-01T14:15:57.548Z,99328.29
2018-07-01T14:18:25.435Z,99327.47
2018-07-01T14:20:53.368Z,99331.59
2018-07-01T14:23:21.216Z,99327.98
2018-07-01T14:25:49.071Z,99330.97
2018-07-01T14:28:16.926Z,99327.71
2018-07-01T14:30:44.836Z,99329.22
2018-07-01T14:33:13.323Z,99321.66
2018-07-01T14:35:41.256Z,99320.95
2018-07-01T14:38:09.107Z,99331.88
2018-07-01T14:40:36.981Z,99326.75
2018-07-01T14:43:04.854Z,99339.68
2018-07-01T14:45:32.732Z,99329.84
2018-07-01T14:48:00.592Z,99341.48
2018-07-01T14:50:28.455Z,99335.22
2018-07-01T14:53:02.363Z,99336.45
2018-07-01T14:55:30.477Z,99339.16
2018-07-01T14:57:58.385Z,99326.34
2018-07-01T15:00:26.227Z,99343.73
2018-07-01T15:02:54.647Z,99344.06
2018-07-01T15:05:23.980Z,99340.03
2018-07-01T15:07:53.040Z,99339.58
2018-07-01T15:10:21.172Z,99343.00
2018-07-01T15:12:49.199Z,99346.32
2018-07-01T15:15:17.985Z,99346.45
2018-07-01T15:17:46.250Z,99331.72
2018-07-01T15:20:14.864Z,99335.71
2018-07-01T15:22:45.713Z,99333.11
2018-07-01T15:25:14.738Z,99340.89
2018-07-01T15:27:43.496Z,99340.16
2018-07-01T15:30:13.683Z,99335.39
2018-07-01T15:32:42.016Z,99344.89
2018-07-01T15:35:09.874Z,99344.89
2018-07-01T15:37:37.744Z,99353.20
2018-07-01T15:40:06.636Z,99351.09
2018-07-01T15:42:34.756Z,99352.23
2018-07-01T15:45:02.736Z,99351.56
2018-07-01T15:47:30.669Z,99355.09
2018-07-01T15:49:59.127Z,99362.38
2018-07-01T15:52:27.491Z,99360.05
2018-07-01T15:54:55.401Z,99358.12
2018-07-01T15:57:23.298Z,99364.38
2018-07-01T15:59:51.172Z,99365.54
2018-07-01T16:02:19.132Z,99358.89
2018-07-01T16:04:47.053Z,99357.55
2018-07-01T16:07:15.118Z,99362.77
2018-07-01T16:09:43.210Z,99358.89
2018-07-01T16:12:11.551Z,99354.33
2018-07-01T16:14:40.547Z,99370.19
2018-07-01T16:17:08.774Z,99366.27
2018-07-01T16:19:36.644Z,99367.01
2018-07-01T16:22:05.469Z,99375.80
2018-07-01T16:24:37.950Z,99386.81
2018-07-01T16:27:11.391Z,99382.27
2018-07-01T16:29:39.261Z,99384.01
2018-07-01T16:32:07.178Z,99383.23
2018-07-01T16:34:37.302Z,99388.30
2018-07-01T16:37:07.706Z,99394.61
2018-07-01T16:39:35.634Z,99392.72
2018-07-01T16:42:04.379Z,99394.02
2018-07-01T16:44:32.280Z,99393.95
2018-07-01T16:47:00.134Z,99397.78
2018-07-01T16:49:28.026Z,99408.19
2018-07-01T16:51:56.004Z,99400.49
2018-07-01T16:54:23.871Z,99406.84
2018-07-01T16:56:51.739Z,99417.66
2018-07-01T16:59:19.590Z,99411.08
2018-07-01T17:01:47.471Z,99414.91
2018-07-01T17:04:15.356Z,99413.66
2018-07-01T17:06:43.350Z,99414.10
2018-07-01T17:09:11.208Z,99417.42
2018-07-01T17:11:39.070Z,99414.48
2018-07-01T17:14:07.137Z,99414.86
2018-07-01T17:16:34.965Z,99409.65
2018-07-01T17:19:02.885Z,99412.02
2018-07-01T17:21:30.727Z,99415.06
2018-07-01T17:23:58.601Z,99421.83
2018-07-01T17:26:26.444Z,99428.54
2018-07-01T17:28:54.327Z,99422.73
2018-07-01T17:31:27.783Z,99419.25
2018-07-01T17:33:55.675Z,99430.03
2018-07-01T17:36:23.559Z,99438.22
2018-07-01T17:38:51.403Z,99439.14
2018-07-01T17:41:19.278Z,99441.29
2018-07-01T17:43:47.138Z,99443.02
2018-07-01T17:46:14.985Z,99443.38
2018-07-01T17:48:42.852Z,99441.68
2018-07-01T17:51:10.690Z,99439.75
2018-07-01T17:53:49.021Z,99429.89
2018-07-01T17:56:16.991Z,99429.47
2018-07-01T17:58:44.896Z,99428.75
2018-07-01T18:01:13.095Z,99434.81
2018-07-01T18:03:41.318Z,99424.07
2018-07-01T18:06:09.205Z,99423.44
2018-07-01T18:08:37.620Z,99425.12
2018-07-01T18:11:05.931Z,99430.84
2018-07-01T18:13:34.062Z,99431.67
2018-07-01T18:16:01.930Z,99442.56
2018-07-01T18:18:29.806Z,99442.12
2018-07-01T18:20:57.691Z,99444.91
2018-07-01T18:23:53.695Z,99443.07
2018-07-01T18:25:53.966Z,99451.27
2018-07-01T18:28:34.112Z,99456.84
2018-07-01T18:30:49.926Z,99459.37
2018-07-01T18:33:17.817Z,99465.66
2018-07-01T18:35:46.105Z,99471.11
2018-07-01T18:38:14.270Z,99476.27
2018-07-01T18:40:42.238Z,99475.96
2018-07-01T18:43:10.159Z,99478.42
2018-07-01T18:45:38.022Z,99475.73
2018-07-01T18:48:06.081Z,99474.18
2018-07-01T18:50:33.964Z,99478.91
2018-07-01T18:53:01.869Z,99488.83
2018-07-01T18:55:29.823Z,99492.95
2018-07-01T18:57:57.776Z,99491.03
2018-07-01T19:00:25.686Z,99494.80
2018-07-01T19:03:00.297Z,99508.75
2018-07-01T19:05:28.430Z,99507.25
2018-07-01T19:07:56.277Z,99512.45
2018-07-01T19:10:24.312Z,99508.59
2018-07-01T19:12:52.883Z,99516.06
2018-07-01T19:15:20.895Z,99511.67
2018-07-01T19:17:49.037Z,99509.47
2018-07-01T19:20:17.079Z,99511.67
2018-07-01T19:22:45.028Z,99514.63
2018-07-01T19:25:12.922Z,99514.41
2018-07-01T19:27:40.835Z,99523.30
2018-07-01T19:30:08.760Z,99524.19
2018-07-01T19:32:36.829Z,99518.18
2018-07-01T19:35:05.358Z,99526.41
2018-07-01T19:37:33.347Z,99519.55
2018-07-01T19:40:01.272Z,99524.76
2018-07-01T19:42:29.229Z,99519.81
2018-07-01T19:44:57.384Z,99527.75
2018-07-01T19:47:25.443Z,99519.89
2018-07-01T19:49:53.623Z,99523.57
2018-07-01T19:52:21.622Z,99516.99
2018-07-01T19:54:49.498Z,99516.48
2018-07-01T19:57:17.394Z,99516.25
2018-07-01T19:59:45.611Z,99522.56
2018-07-01T20:02:13.656Z,99524.48
2018-07-01T20:04:41.618Z,99522.84
2018-07-01T20:07:09.553Z,99526.92
2018-07-01T20:09:37.553Z,99524.48
2018-07-01T20:12:05.832Z,99513.80
2018-07-01T20:14:33.767Z,99511.37
2018-07-01T20:17:01.692Z,99515.75
2018-07-01T20:19:29.620Z,99517.11
2018-07-01T20:21:57.538Z,99517.41
2018-07-01T20:24:25.466Z,99518.23
2018-07-01T20:26:53.426Z,99514.64
2018-07-01T20:29:21.402Z,99522.86
2018-07-01T20:31:49.246Z,99522.90
2018-07-01T20:34:17.150Z,99523.45
2018-07-01T20:36:45.676Z,99530.61
2018-07-01T20:39:14.609Z,99524.27
2018-07-01T20:41:43.302Z,99525.36
2018-07-01T20:44:11.224Z,99527.56
2018-07-01T20:46:39.455Z,99532.80
2018-07-01T20:49:07.359Z,99536.09
2018-07-01T20:51:35.220Z,99525.94
2018-07-01T20:54:03.176Z,99526.21
2018-07-01T20:56:31.056Z,99526.20
2018-07-01T20:58:58.910Z,99529.45
2018-07-01T21:01:27.083Z,99531.16
2018-07-01T21:03:55.012Z,99536.87
2018-07-01T21:06:22.924Z,99544.29
2018-07-01T21:08:50.833Z,99549.79
2018-07-01T21:11:18.673Z,99548.12
2018-07-01T21:13:46.590Z,99546.48
2018-07-01T21:16:14.952Z,99551.77
2018-07-01T21:18:42.861Z,99549.84
2018-07-01T21:21:10.735Z,99548.19
2018-07-01T21:23:38.646Z,99548.91
2018-07-01T21:26:07.143Z,99549.97
2018-07-01T21:28:35.009Z,99552.73
2018-07-01T21:31:02.897Z,99544.53
2018-07-01T21:33:30.745Z,99554.15
2018-07-01T21:35:58.707Z,99551.11
2018-07-01T21:38:26.634Z,99556.69
2018-07-01T21:40:54.497Z,99565.80
2018-07-01T21:43:22.385Z,99562.23
2018-07-01T21:45:51.596Z,99558.44
2018-07-01T21:48:19.541Z,99551.94
2018-07-01T21:50:47.666Z,99553.58
2018-07-01T21:53:15.606Z,99555.00
2018-07-01T21:55:43.498Z,99555.35
2018-07-01T21:58:11.398Z,99553.15
2018-07-01T22:00:39.286Z,99551.23
2018-07-01T22:03:07.195Z,99550.67
2018-07-01T22:05:35.093Z,99546.28
2018-07-01T22:08:03.135Z,99544.35
2018-07-01T22:10:42.088Z,99544.07
2018-07-01T22:13:20.975Z,99550.94
2018-07-01T22:15:59.971Z,99554.78
2018-07-01T22:18:27.795Z,99548.47
2018-07-01T22:20:55.714Z,99549.01
2018-07-01T22:23:23.915Z,99557.18
2018-07-01T22:25:51.807Z,99568.95
2018-07-01T22:28:19.713Z,99566.20
2018-07-01T22:30:47.596Z,99568.36
2018-07-01T22:33:15.477Z,99570.56
2018-07-01T22:35:43.391Z,99572.16
2018-07-01T22:38:11.303Z,99570.95
2018-07-01T22:40:39.211Z,99584.08
2018-07-01T22:43:07.398Z,99577.17
2018-07-01T22:45:35.295Z,99577.13
2018-07-01T22:48:03.153Z,99582.92
2018-07-01T22:50:31.001Z,99572.52
2018-07-01T22:52:59.179Z,99565.95
2018-07-01T22:55:27.066Z,99573.85
2018-07-01T22:57:54.951Z,99570.19
2018-07-01T23:00:22.892Z,99573.69
2018-07-01T23:03:07.074Z,99588.31
2018-07-01T23:05:34.861Z,99586.78
2018-07-01T23:08:02.750Z,99584.66
2018-07-01T23:10:31.293Z,99580.03
2018-07-01T23:12:59.604Z,99579.73
2018-07-01T23:15:27.513Z,99566.80
2018-07-01T23:17:55.465Z,99565.50
2018-07-01T23:20:23.361Z,99565.59
2018-07-01T23:22:51.278Z,99567.41
2018-07-01T23:25:19.193Z,99570.83
2018-07-01T23:27:47.576Z,99562.85
2018-07-01T23:30:15.476Z,99563.18
2018-07-01T23:32:43.816Z,99565.43
2018-07-01T23:35:11.694Z,99573.77
2018-07-01T23:37:39.863Z,99563.90
2018-07-01T23:40:08.443Z,99554.03
2018-07-01T23:42:36.343Z,99550.73
2018-07-01T23:45:04.919Z,99552.66
2018-07-01T23:47:32.775Z,99553.77
2018-07-01T23:50:00.657Z,99562.53
2018-07-01T23:52:28.553Z,99563.76
2018-07-01T23:54:56.423Z,99565.30
2018-07-01T23:57:24.295Z,99564.97
2018-07-01T23:59:52.152Z,99577.75
